sensor_id;sensor_type;location;lat;lon;timestamp;pressure;altitude;pressure_sealevel;temperature;humidity
72570;BME280;60594;50.204;8.844;2023-01-30T00:01:06;100618.16;;;-0.51;88.12
72570;BME280;60594;50.204;8.844;2023-01-30T00:03:38;100611.94;;;-0.47;87.89
72570;BME280;60594;50.204;8.844;2023-01-30T00:06:04;100605.88;;;-0.49;88.02
72570;BME280;60594;50.204;8.844;2023-01-30T00:08:31;100601.56;;;-0.50;88.20
72570;BME280;60594;50.204;8.844;2023-01-30T00:11:02;100606.63;;;-0.44;88.08
72570;BME280;60594;50.204;8.844;2023-01-30T00:13:29;100610.47;;;-0.57;88.49
72570;BME280;60594;50.204;8.844;2023-01-30T00:15:55;100586.09;;;-0.59;88.98
72570;BME280;60594;50.204;8.844;2023-01-30T00:18:22;100567.06;;;-0.64;89.25
72570;BME280;60594;50.204;8.844;2023-01-30T00:20:54;100577.19;;;-0.52;88.86
72570;BME280;60594;50.204;8.844;2023-01-30T00:23:21;100580.78;;;-0.56;89.00
72570;BME280;60594;50.204;8.844;2023-01-30T00:25:47;100566.09;;;-0.60;89.59
72570;BME280;60594;50.204;8.844;2023-01-30T00:28:14;100567.56;;;-0.52;89.60
72570;BME280;60594;50.204;8.844;2023-01-30T00:30:41;100572.69;;;-0.47;89.01
72570;BME280;60594;50.204;8.844;2023-01-30T00:33:08;100534.94;;;-0.68;89.14
72570;BME280;60594;50.204;8.844;2023-01-30T00:35:35;100538.09;;;-0.57;89.52
72570;BME280;60594;50.204;8.844;2023-01-30T00:38:01;100517.84;;;-0.52;89.37
72570;BME280;60594;50.204;8.844;2023-01-30T00:40:28;100487.63;;;-0.62;89.99
72570;BME280;60594;50.204;8.844;2023-01-30T00:42:55;100515.41;;;-0.58;90.36
72570;BME280;60594;50.204;8.844;2023-01-30T00:45:42;100523.38;;;-0.61;90.45
72570;BME280;60594;50.204;8.844;2023-01-30T00:48:28;100525.81;;;-0.56;90.76
72570;BME280;60594;50.204;8.844;2023-01-30T00:50:54;100513.88;;;-0.65;91.33
72570;BME280;60594;50.204;8.844;2023-01-30T00:53:21;100520.97;;;-0.68;91.10
72570;BME280;60594;50.204;8.844;2023-01-30T00:55:50;100510.97;;;-0.54;91.21
72570;BME280;60594;50.204;8.844;2023-01-30T00:58:17;100512.31;;;-0.43;90.96
72570;BME280;60594;50.204;8.844;2023-01-30T01:00:43;100518.69;;;-0.50;91.38
72570;BME280;60594;50.204;8.844;2023-01-30T01:03:10;100502.28;;;-0.56;91.49
72570;BME280;60594;50.204;8.844;2023-01-30T01:05:36;100489.09;;;-0.53;92.38
72570;BME280;60594;50.204;8.844;2023-01-30T01:08:03;100487.41;;;-0.54;92.64
72570;BME280;60594;50.204;8.844;2023-01-30T01:10:30;100487.94;;;-0.43;92.91
72570;BME280;60594;50.204;8.844;2023-01-30T01:12:57;100492.34;;;-0.45;92.71
72570;BME280;60594;50.204;8.844;2023-01-30T01:15:25;100500.81;;;-0.37;92.29
72570;BME280;60594;50.204;8.844;2023-01-30T01:17:52;100475.59;;;-0.40;92.57
72570;BME280;60594;50.204;8.844;2023-01-30T01:20:20;100482.56;;;-0.39;92.24
72570;BME280;60594;50.204;8.844;2023-01-30T01:22:47;100476.31;;;-0.35;93.20
72570;BME280;60594;50.204;8.844;2023-01-30T01:25:20;100468.47;;;-0.35;92.06
72570;BME280;60594;50.204;8.844;2023-01-30T01:27:47;100436.84;;;-0.29;93.45
72570;BME280;60594;50.204;8.844;2023-01-30T01:30:16;100417.03;;;-0.37;93.07
72570;BME280;60594;50.204;8.844;2023-01-30T01:32:43;100434.66;;;-0.42;93.39
72570;BME280;60594;50.204;8.844;2023-01-30T01:35:10;100453.41;;;-0.28;93.40
72570;BME280;60594;50.204;8.844;2023-01-30T01:37:37;100457.53;;;-0.21;93.11
72570;BME280;60594;50.204;8.844;2023-01-30T01:40:04;100469.16;;;-0.04;92.24
72570;BME280;60594;50.204;8.844;2023-01-30T01:42:49;100466.34;;;0.03;92.00
72570;BME280;60594;50.204;8.844;2023-01-30T01:45:21;100473.75;;;-0.10;92.42
72570;BME280;60594;50.204;8.844;2023-01-30T01:48:02;100459.16;;;-0.17;92.98
72570;BME280;60594;50.204;8.844;2023-01-30T01:50:53;100461.50;;;-0.10;92.82
72570;BME280;60594;50.204;8.844;2023-01-30T01:53:25;100452.41;;;-0.24;92.86
72570;BME280;60594;50.204;8.844;2023-01-30T01:55:55;100445.38;;;-0.22;92.85
72570;BME280;60594;50.204;8.844;2023-01-30T01:58:38;100445.25;;;-0.19;93.40
72570;BME280;60594;50.204;8.844;2023-01-30T02:01:07;100439.22;;;-0.21;93.84
72570;BME280;60594;50.204;8.844;2023-01-30T02:03:38;100433.63;;;-0.11;93.35
72570;BME280;60594;50.204;8.844;2023-01-30T02:06:06;100411.00;;;-0.13;93.28
72570;BME280;60594;50.204;8.844;2023-01-30T02:08:36;100418.53;;;-0.04;92.79
72570;BME280;60594;50.204;8.844;2023-01-30T02:13:44;100404.81;;;-0.11;92.72
72570;BME280;60594;50.204;8.844;2023-01-30T02:16:11;100395.16;;;-0.09;93.23
72570;BME280;60594;50.204;8.844;2023-01-30T02:18:39;100399.41;;;-0.06;93.46
72570;BME280;60594;50.204;8.844;2023-01-30T02:29:29;100390.66;;;-0.05;93.57
72570;BME280;60594;50.204;8.844;2023-01-30T02:32:26;100394.72;;;0.03;93.14
72570;BME280;60594;50.204;8.844;2023-01-30T02:35:03;100386.13;;;0.00;93.51
72570;BME280;60594;50.204;8.844;2023-01-30T02:38:01;100388.63;;;0.03;92.78
72570;BME280;60594;50.204;8.844;2023-01-30T02:40:55;100388.66;;;0.01;92.80
72570;BME280;60594;50.204;8.844;2023-01-30T02:43:38;100386.88;;;0.03;92.20
72570;BME280;60594;50.204;8.844;2023-01-30T02:46:17;100386.75;;;0.07;93.31
72570;BME280;60594;50.204;8.844;2023-01-30T02:48:54;100387.06;;;-0.03;92.85
72570;BME280;60594;50.204;8.844;2023-01-30T02:51:27;100381.78;;;-0.01;93.37
72570;BME280;60594;50.204;8.844;2023-01-30T02:53:55;100386.00;;;0.03;92.73
72570;BME280;60594;50.204;8.844;2023-01-30T02:56:22;100382.69;;;-0.02;93.50
72570;BME280;60594;50.204;8.844;2023-01-30T02:58:56;100400.00;;;0.02;93.31
72570;BME280;60594;50.204;8.844;2023-01-30T03:06:46;100390.16;;;0.08;93.33
72570;BME280;60594;50.204;8.844;2023-01-30T03:12:17;100400.69;;;0.07;93.54
72570;BME280;60594;50.204;8.844;2023-01-30T03:14:58;100403.97;;;0.14;93.95
72570;BME280;60594;50.204;8.844;2023-01-30T03:17:26;100391.34;;;0.25;92.58
72570;BME280;60594;50.204;8.844;2023-01-30T03:19:54;100377.28;;;0.27;92.52
72570;BME280;60594;50.204;8.844;2023-01-30T03:22:21;100382.69;;;0.23;93.75
72570;BME280;60594;50.204;8.844;2023-01-30T03:24:50;100370.44;;;0.23;92.78
72570;BME280;60594;50.204;8.844;2023-01-30T03:27:18;100380.06;;;0.23;93.96
72570;BME280;60594;50.204;8.844;2023-01-30T03:29:46;100356.44;;;0.24;94.04
72570;BME280;60594;50.204;8.844;2023-01-30T03:32:13;100345.78;;;0.29;92.92
72570;BME280;60594;50.204;8.844;2023-01-30T03:34:40;100367.72;;;0.26;93.29
72570;BME280;60594;50.204;8.844;2023-01-30T03:37:07;100360.94;;;0.21;93.77
72570;BME280;60594;50.204;8.844;2023-01-30T03:39:35;100340.72;;;0.24;93.56
72570;BME280;60594;50.204;8.844;2023-01-30T03:42:02;100345.91;;;0.26;94.00
72570;BME280;60594;50.204;8.844;2023-01-30T03:44:28;100322.63;;;0.17;93.49
72570;BME280;60594;50.204;8.844;2023-01-30T03:46:55;100332.38;;;0.13;94.25
72570;BME280;60594;50.204;8.844;2023-01-30T03:49:22;100338.44;;;0.15;94.25
72570;BME280;60594;50.204;8.844;2023-01-30T03:51:49;100327.81;;;0.18;93.89
72570;BME280;60594;50.204;8.844;2023-01-30T03:54:15;100337.28;;;0.22;93.85
72570;BME280;60594;50.204;8.844;2023-01-30T03:56:42;100326.00;;;0.20;93.82
72570;BME280;60594;50.204;8.844;2023-01-30T03:59:08;100313.31;;;0.10;93.66
72570;BME280;60594;50.204;8.844;2023-01-30T04:01:40;100310.19;;;0.23;94.37
72570;BME280;60594;50.204;8.844;2023-01-30T04:04:07;100318.16;;;0.20;94.50
72570;BME280;60594;50.204;8.844;2023-01-30T04:06:34;100320.78;;;0.20;94.32
72570;BME280;60594;50.204;8.844;2023-01-30T04:09:00;100320.88;;;0.17;94.72
72570;BME280;60594;50.204;8.844;2023-01-30T04:11:56;100303.28;;;0.21;94.45
72570;BME280;60594;50.204;8.844;2023-01-30T04:14:24;100294.78;;;0.14;94.71
72570;BME280;60594;50.204;8.844;2023-01-30T04:17:13;100288.31;;;0.24;94.53
72570;BME280;60594;50.204;8.844;2023-01-30T04:20:15;100283.31;;;0.17;94.63
72570;BME280;60594;50.204;8.844;2023-01-30T04:22:47;100271.00;;;0.20;94.79
72570;BME280;60594;50.204;8.844;2023-01-30T04:25:13;100277.38;;;0.13;95.00
72570;BME280;60594;50.204;8.844;2023-01-30T04:27:40;100274.78;;;0.12;95.04
72570;BME280;60594;50.204;8.844;2023-01-30T04:30:14;100268.94;;;0.05;95.41
72570;BME280;60594;50.204;8.844;2023-01-30T04:32:42;100253.94;;;0.08;95.27
72570;BME280;60594;50.204;8.844;2023-01-30T04:35:10;100258.09;;;0.14;95.32
72570;BME280;60594;50.204;8.844;2023-01-30T04:37:37;100246.75;;;0.15;94.52
72570;BME280;60594;50.204;8.844;2023-01-30T04:40:05;100245.97;;;0.12;94.98
72570;BME280;60594;50.204;8.844;2023-01-30T04:42:32;100240.75;;;0.12;94.84
72570;BME280;60594;50.204;8.844;2023-01-30T04:45:28;100234.72;;;0.10;95.30
72570;BME280;60594;50.204;8.844;2023-01-30T04:47:55;100227.69;;;0.10;96.12
72570;BME280;60594;50.204;8.844;2023-01-30T04:50:21;100222.63;;;0.05;96.45
72570;BME280;60594;50.204;8.844;2023-01-30T04:52:48;100225.88;;;0.12;96.27
72570;BME280;60594;50.204;8.844;2023-01-30T04:55:14;100202.59;;;0.04;96.04
72570;BME280;60594;50.204;8.844;2023-01-30T04:57:41;100215.34;;;0.14;97.02
72570;BME280;60594;50.204;8.844;2023-01-30T05:00:08;100228.97;;;0.23;95.91
72570;BME280;60594;50.204;8.844;2023-01-30T05:02:37;100224.28;;;0.31;95.64
72570;BME280;60594;50.204;8.844;2023-01-30T05:05:04;100213.34;;;0.20;96.24
72570;BME280;60594;50.204;8.844;2023-01-30T05:07:31;100214.00;;;0.25;95.95
72570;BME280;60594;50.204;8.844;2023-01-30T05:09:57;100223.53;;;0.28;96.14
72570;BME280;60594;50.204;8.844;2023-01-30T05:12:24;100211.00;;;0.36;96.35
72570;BME280;60594;50.204;8.844;2023-01-30T05:14:50;100224.88;;;0.38;95.39
72570;BME280;60594;50.204;8.844;2023-01-30T05:17:17;100226.03;;;0.31;95.84
72570;BME280;60594;50.204;8.844;2023-01-30T05:19:43;100225.81;;;0.37;95.58
72570;BME280;60594;50.204;8.844;2023-01-30T05:22:10;100225.06;;;0.33;95.42
72570;BME280;60594;50.204;8.844;2023-01-30T05:24:37;100210.13;;;0.35;96.11
72570;BME280;60594;50.204;8.844;2023-01-30T05:27:03;100210.94;;;0.37;95.47
72570;BME280;60594;50.204;8.844;2023-01-30T05:29:30;100214.28;;;0.41;95.39
72570;BME280;60594;50.204;8.844;2023-01-30T05:31:56;100196.31;;;0.32;95.69
72570;BME280;60594;50.204;8.844;2023-01-30T05:34:23;100193.06;;;0.25;95.73
72570;BME280;60594;50.204;8.844;2023-01-30T05:36:49;100198.78;;;0.35;96.37
72570;BME280;60594;50.204;8.844;2023-01-30T05:39:16;100186.72;;;0.31;95.53
72570;BME280;60594;50.204;8.844;2023-01-30T05:41:42;100198.19;;;0.50;95.41
72570;BME280;60594;50.204;8.844;2023-01-30T05:44:09;100196.13;;;0.36;96.13
72570;BME280;60594;50.204;8.844;2023-01-30T05:46:35;100187.59;;;0.31;95.93
72570;BME280;60594;50.204;8.844;2023-01-30T05:49:02;100177.53;;;0.42;96.06
72570;BME280;60594;50.204;8.844;2023-01-30T05:51:29;100180.50;;;0.33;96.48
72570;BME280;60594;50.204;8.844;2023-01-30T05:53:55;100169.03;;;0.37;97.13
72570;BME280;60594;50.204;8.844;2023-01-30T05:56:22;100164.00;;;0.31;97.13
72570;BME280;60594;50.204;8.844;2023-01-30T05:58:53;100183.75;;;0.40;98.10
72570;BME280;60594;50.204;8.844;2023-01-30T06:01:20;100168.03;;;0.40;98.66
72570;BME280;60594;50.204;8.844;2023-01-30T06:03:48;100158.72;;;0.33;99.36
72570;BME280;60594;50.204;8.844;2023-01-30T06:06:14;100152.31;;;0.40;98.53
72570;BME280;60594;50.204;8.844;2023-01-30T06:08:41;100171.19;;;0.48;98.52
72570;BME280;60594;50.204;8.844;2023-01-30T06:11:11;100160.13;;;0.41;99.43
72570;BME280;60594;50.204;8.844;2023-01-30T06:13:38;100157.50;;;0.41;99.27
72570;BME280;60594;50.204;8.844;2023-01-30T06:16:05;100153.84;;;0.45;100.00
72570;BME280;60594;50.204;8.844;2023-01-30T06:18:32;100154.19;;;0.36;100.00
72570;BME280;60594;50.204;8.844;2023-01-30T06:20:59;100139.50;;;0.32;100.00
72570;BME280;60594;50.204;8.844;2023-01-30T06:23:25;100143.09;;;0.30;100.00
72570;BME280;60594;50.204;8.844;2023-01-30T06:25:53;100138.09;;;0.24;100.00
72570;BME280;60594;50.204;8.844;2023-01-30T06:28:21;100141.50;;;0.26;100.00
72570;BME280;60594;50.204;8.844;2023-01-30T06:30:49;100146.66;;;0.29;100.00
72570;BME280;60594;50.204;8.844;2023-01-30T06:33:16;100136.44;;;0.21;100.00
72570;BME280;60594;50.204;8.844;2023-01-30T06:35:43;100140.19;;;0.37;100.00
72570;BME280;60594;50.204;8.844;2023-01-30T06:38:10;100131.41;;;0.38;99.86
72570;BME280;60594;50.204;8.844;2023-01-30T06:40:40;100136.75;;;0.35;100.00
72570;BME280;60594;50.204;8.844;2023-01-30T06:43:06;100145.34;;;0.39;100.00
72570;BME280;60594;50.204;8.844;2023-01-30T06:45:33;100159.97;;;0.44;99.83
72570;BME280;60594;50.204;8.844;2023-01-30T06:47:59;100170.34;;;0.47;99.32
72570;BME280;60594;50.204;8.844;2023-01-30T06:50:27;100191.84;;;0.55;98.94
72570;BME280;60594;50.204;8.844;2023-01-30T06:52:54;100184.75;;;0.37;100.00
72570;BME280;60594;50.204;8.844;2023-01-30T06:55:24;100198.50;;;0.42;100.00
72570;BME280;60594;50.204;8.844;2023-01-30T06:58:00;100194.72;;;0.49;99.22
72570;BME280;60594;50.204;8.844;2023-01-30T07:00:28;100193.31;;;0.41;99.20
72570;BME280;60594;50.204;8.844;2023-01-30T07:02:55;100191.25;;;0.49;99.26
72570;BME280;60594;50.204;8.844;2023-01-30T07:05:21;100166.44;;;0.36;98.85
72570;BME280;60594;50.204;8.844;2023-01-30T07:07:48;100186.94;;;0.48;98.75
72570;BME280;60594;50.204;8.844;2023-01-30T07:10:15;100185.34;;;0.44;99.13
72570;BME280;60594;50.204;8.844;2023-01-30T07:12:41;100183.72;;;0.41;98.43
72570;BME280;60594;50.204;8.844;2023-01-30T07:15:08;100195.78;;;0.45;98.85
72570;BME280;60594;50.204;8.844;2023-01-30T07:17:34;100195.06;;;0.40;98.97
72570;BME280;60594;50.204;8.844;2023-01-30T07:20:01;100189.78;;;0.42;99.88
72570;BME280;60594;50.204;8.844;2023-01-30T07:22:27;100183.81;;;0.38;100.00
72570;BME280;60594;50.204;8.844;2023-01-30T07:24:54;100159.75;;;0.29;100.00
72570;BME280;60594;50.204;8.844;2023-01-30T07:27:20;100159.53;;;0.33;100.00
72570;BME280;60594;50.204;8.844;2023-01-30T07:29:47;100177.75;;;0.36;100.00
72570;BME280;60594;50.204;8.844;2023-01-30T07:32:16;100158.66;;;0.34;100.00
72570;BME280;60594;50.204;8.844;2023-01-30T07:34:45;100162.91;;;0.37;100.00
72570;BME280;60594;50.204;8.844;2023-01-30T07:37:12;100172.91;;;0.49;100.00
72570;BME280;60594;50.204;8.844;2023-01-30T07:39:38;100171.03;;;0.52;100.00
72570;BME280;60594;50.204;8.844;2023-01-30T07:42:05;100187.47;;;0.56;100.00
72570;BME280;60594;50.204;8.844;2023-01-30T07:44:32;100169.44;;;0.48;100.00
72570;BME280;60594;50.204;8.844;2023-01-30T07:46:59;100179.44;;;0.60;100.00
72570;BME280;60594;50.204;8.844;2023-01-30T07:49:26;100166.91;;;0.67;100.00
72570;BME280;60594;50.204;8.844;2023-01-30T07:51:52;100171.94;;;0.73;99.66
72570;BME280;60594;50.204;8.844;2023-01-30T07:54:19;100172.16;;;0.67;99.60
72570;BME280;60594;50.204;8.844;2023-01-30T07:56:45;100167.25;;;0.59;100.00
72570;BME280;60594;50.204;8.844;2023-01-30T07:59:12;100156.44;;;0.67;100.00
72570;BME280;60594;50.204;8.844;2023-01-30T08:01:38;100165.88;;;0.71;100.00
72570;BME280;60594;50.204;8.844;2023-01-30T08:04:05;100166.84;;;0.68;100.00
72570;BME280;60594;50.204;8.844;2023-01-30T08:06:31;100149.56;;;0.64;100.00
72570;BME280;60594;50.204;8.844;2023-01-30T08:09:02;100148.91;;;0.79;100.00
72570;BME280;60594;50.204;8.844;2023-01-30T08:11:29;100141.56;;;0.67;100.00
72570;BME280;60594;50.204;8.844;2023-01-30T08:13:55;100141.09;;;0.78;100.00
72570;BME280;60594;50.204;8.844;2023-01-30T08:16:22;100159.06;;;0.87;100.00
72570;BME280;60594;50.204;8.844;2023-01-30T08:18:48;100169.13;;;0.97;100.00
72570;BME280;60594;50.204;8.844;2023-01-30T08:21:15;100166.75;;;0.91;100.00
72570;BME280;60594;50.204;8.844;2023-01-30T08:23:41;100150.25;;;0.89;100.00
72570;BME280;60594;50.204;8.844;2023-01-30T08:26:08;100158.41;;;0.82;100.00
72570;BME280;60594;50.204;8.844;2023-01-30T08:28:34;100160.81;;;0.88;100.00
72570;BME280;60594;50.204;8.844;2023-01-30T08:31:01;100178.88;;;0.94;100.00
72570;BME280;60594;50.204;8.844;2023-01-30T08:33:27;100175.38;;;0.95;100.00
72570;BME280;60594;50.204;8.844;2023-01-30T08:35:54;100176.66;;;1.05;100.00
72570;BME280;60594;50.204;8.844;2023-01-30T08:38:21;100172.59;;;0.98;100.00
72570;BME280;60594;50.204;8.844;2023-01-30T08:40:47;100170.66;;;1.03;100.00
72570;BME280;60594;50.204;8.844;2023-01-30T08:43:14;100166.13;;;1.06;100.00
72570;BME280;60594;50.204;8.844;2023-01-30T08:45:40;100130.56;;;0.99;100.00
72570;BME280;60594;50.204;8.844;2023-01-30T08:48:07;100158.19;;;1.08;100.00
72570;BME280;60594;50.204;8.844;2023-01-30T08:50:33;100159.09;;;1.07;100.00
72570;BME280;60594;50.204;8.844;2023-01-30T08:53:07;100142.63;;;1.03;100.00
72570;BME280;60594;50.204;8.844;2023-01-30T08:55:35;100139.88;;;1.06;100.00
72570;BME280;60594;50.204;8.844;2023-01-30T08:58:01;100161.53;;;1.11;100.00
72570;BME280;60594;50.204;8.844;2023-01-30T09:00:28;100160.44;;;1.17;100.00
72570;BME280;60594;50.204;8.844;2023-01-30T09:02:56;100159.44;;;1.19;100.00
72570;BME280;60594;50.204;8.844;2023-01-30T09:05:23;100169.66;;;1.25;100.00
72570;BME280;60594;50.204;8.844;2023-01-30T09:07:50;100149.59;;;1.24;100.00
72570;BME280;60594;50.204;8.844;2023-01-30T09:10:17;100139.81;;;1.28;100.00
72570;BME280;60594;50.204;8.844;2023-01-30T09:12:44;100136.75;;;1.18;100.00
72570;BME280;60594;50.204;8.844;2023-01-30T09:15:12;100151.44;;;1.22;100.00
72570;BME280;60594;50.204;8.844;2023-01-30T09:17:39;100130.50;;;1.21;100.00
72570;BME280;60594;50.204;8.844;2023-01-30T09:20:07;100105.44;;;1.14;100.00
72570;BME280;60594;50.204;8.844;2023-01-30T09:22:35;100130.09;;;1.30;100.00
72570;BME280;60594;50.204;8.844;2023-01-30T09:25:03;100113.88;;;1.40;100.00
72570;BME280;60594;50.204;8.844;2023-01-30T09:27:30;100118.34;;;1.38;100.00
72570;BME280;60594;50.204;8.844;2023-01-30T09:29:57;100111.25;;;1.40;100.00
72570;BME280;60594;50.204;8.844;2023-01-30T09:32:23;100114.53;;;1.45;100.00
72570;BME280;60594;50.204;8.844;2023-01-30T09:34:50;100111.72;;;1.50;100.00
72570;BME280;60594;50.204;8.844;2023-01-30T09:37:16;100122.22;;;1.50;100.00
72570;BME280;60594;50.204;8.844;2023-01-30T09:39:43;100123.78;;;1.54;100.00
72570;BME280;60594;50.204;8.844;2023-01-30T09:42:24;100121.84;;;1.57;100.00
72570;BME280;60594;50.204;8.844;2023-01-30T09:45:21;100100.72;;;1.60;100.00
72570;BME280;60594;50.204;8.844;2023-01-30T09:48:02;100118.53;;;1.72;100.00
72570;BME280;60594;50.204;8.844;2023-01-30T09:50:58;100100.00;;;1.75;100.00
72570;BME280;60594;50.204;8.844;2023-01-30T09:53:32;100099.81;;;1.80;100.00
72570;BME280;60594;50.204;8.844;2023-01-30T09:56:00;100086.44;;;1.84;100.00
72570;BME280;60594;50.204;8.844;2023-01-30T09:58:43;100073.88;;;1.91;100.00
72570;BME280;60594;50.204;8.844;2023-01-30T10:01:17;100080.38;;;2.01;100.00
72570;BME280;60594;50.204;8.844;2023-01-30T10:04:12;100069.72;;;2.04;99.85
72570;BME280;60594;50.204;8.844;2023-01-30T10:07:01;100067.44;;;2.15;99.74
72570;BME280;60594;50.204;8.844;2023-01-30T10:09:39;100083.81;;;2.38;99.37
72570;BME280;60594;50.204;8.844;2023-01-30T10:12:41;100093.56;;;2.36;98.77
72570;BME280;60594;50.204;8.844;2023-01-30T10:23:49;100094.28;;;2.57;97.76
72570;BME280;60594;50.204;8.844;2023-01-30T10:26:20;100094.81;;;2.63;96.54
72570;BME280;60594;50.204;8.844;2023-01-30T10:29:04;100087.41;;;2.71;96.33
72570;BME280;60594;50.204;8.844;2023-01-30T10:31:39;100096.22;;;2.87;95.50
72570;BME280;60594;50.204;8.844;2023-01-30T10:34:14;100098.75;;;2.89;94.84
72570;BME280;60594;50.204;8.844;2023-01-30T10:37:06;100091.72;;;2.89;94.65
72570;BME280;60594;50.204;8.844;2023-01-30T10:39:46;100091.25;;;2.98;94.40
72570;BME280;60594;50.204;8.844;2023-01-30T10:42:25;100075.66;;;2.95;94.27
72570;BME280;60594;50.204;8.844;2023-01-30T10:45:09;100084.97;;;3.18;94.57
72570;BME280;60594;50.204;8.844;2023-01-30T10:50:38;100097.47;;;3.47;94.22
72570;BME280;60594;50.204;8.844;2023-01-30T10:53:18;100103.66;;;3.94;91.03
72570;BME280;60594;50.204;8.844;2023-01-30T10:55:47;100103.41;;;4.14;91.11
72570;BME280;60594;50.204;8.844;2023-01-30T11:01:06;100105.16;;;4.45;87.42
72570;BME280;60594;50.204;8.844;2023-01-30T11:03:56;100099.56;;;4.20;88.95
72570;BME280;60594;50.204;8.844;2023-01-30T11:06:25;100096.50;;;3.96;89.96
72570;BME280;60594;50.204;8.844;2023-01-30T11:08:53;100106.88;;;3.99;90.18
72570;BME280;60594;50.204;8.844;2023-01-30T11:11:28;100107.38;;;4.06;89.99
72570;BME280;60594;50.204;8.844;2023-01-30T11:14:03;100089.13;;;4.03;89.86
72570;BME280;60594;50.204;8.844;2023-01-30T11:16:32;100094.47;;;4.01;90.20
72570;BME280;60594;50.204;8.844;2023-01-30T11:19:05;100099.16;;;4.12;90.78
72570;BME280;60594;50.204;8.844;2023-01-30T11:21:32;100110.03;;;4.21;89.36
72570;BME280;60594;50.204;8.844;2023-01-30T11:24:04;100113.53;;;4.22;90.01
72570;BME280;60594;50.204;8.844;2023-01-30T11:26:38;100099.72;;;4.17;90.21
72570;BME280;60594;50.204;8.844;2023-01-30T11:29:15;100084.34;;;4.25;90.63
72570;BME280;60594;50.204;8.844;2023-01-30T11:31:48;100097.16;;;4.46;89.92
72570;BME280;60594;50.204;8.844;2023-01-30T11:34:17;100098.53;;;4.53;88.10
72570;BME280;60594;50.204;8.844;2023-01-30T11:36:44;100084.69;;;4.64;87.58
72570;BME280;60594;50.204;8.844;2023-01-30T11:41:57;100087.28;;;4.50;88.92
72570;BME280;60594;50.204;8.844;2023-01-30T11:44:30;100098.53;;;4.38;89.45
72570;BME280;60594;50.204;8.844;2023-01-30T11:46:59;100087.81;;;4.41;89.41
72570;BME280;60594;50.204;8.844;2023-01-30T11:49:31;100086.13;;;4.40;89.03
72570;BME280;60594;50.204;8.844;2023-01-30T11:51:59;100085.75;;;4.46;89.35
72570;BME280;60594;50.204;8.844;2023-01-30T11:54:44;100080.94;;;4.38;89.27
72570;BME280;60594;50.204;8.844;2023-01-30T11:57:14;100090.00;;;4.48;88.27
72570;BME280;60594;50.204;8.844;2023-01-30T11:59:44;100085.16;;;4.56;88.58
72570;BME280;60594;50.204;8.844;2023-01-30T12:04:55;100093.25;;;4.53;89.21
72570;BME280;60594;50.204;8.844;2023-01-30T12:07:26;100085.16;;;4.56;89.99
72570;BME280;60594;50.204;8.844;2023-01-30T12:09:55;100091.66;;;4.65;90.38
72570;BME280;60594;50.204;8.844;2023-01-30T12:12:32;100091.72;;;4.49;91.51
72570;BME280;60594;50.204;8.844;2023-01-30T12:15:05;100082.94;;;4.49;91.48
72570;BME280;60594;50.204;8.844;2023-01-30T12:26:19;100079.03;;;4.56;91.10
72570;BME280;60594;50.204;8.844;2023-01-30T12:31:46;100058.16;;;4.51;91.10
72570;BME280;60594;50.204;8.844;2023-01-30T12:34:15;100053.50;;;4.56;89.67
72570;BME280;60594;50.204;8.844;2023-01-30T12:37:07;100065.09;;;4.68;89.54
72570;BME280;60594;50.204;8.844;2023-01-30T12:39:52;100054.00;;;4.47;90.79
72570;BME280;60594;50.204;8.844;2023-01-30T12:42:52;100048.06;;;4.44;90.71
72570;BME280;60594;50.204;8.844;2023-01-30T12:45:22;100054.88;;;4.48;91.16
72570;BME280;60594;50.204;8.844;2023-01-30T12:48:14;100064.00;;;4.42;91.65
72570;BME280;60594;50.204;8.844;2023-01-30T12:58:44;100092.84;;;4.45;92.55
72570;BME280;60594;50.204;8.844;2023-01-30T13:01:50;100090.28;;;4.44;92.61
72570;BME280;60594;50.204;8.844;2023-01-30T13:15:44;100102.66;;;4.73;91.37
72570;BME280;60594;50.204;8.844;2023-01-30T13:20:54;100093.34;;;4.81;90.88
72570;BME280;60594;50.204;8.844;2023-01-30T13:23:34;100098.34;;;4.86;91.26
72570;BME280;60594;50.204;8.844;2023-01-30T13:26:09;100112.50;;;4.85;92.55
72570;BME280;60594;50.204;8.844;2023-01-30T13:28:48;100105.31;;;4.73;93.34
72570;BME280;60594;50.204;8.844;2023-01-30T13:31:20;100103.06;;;4.81;93.68
72570;BME280;60594;50.204;8.844;2023-01-30T13:34:04;100103.50;;;4.73;93.61
72570;BME280;60594;50.204;8.844;2023-01-30T13:36:39;100102.38;;;4.77;92.96
72570;BME280;60594;50.204;8.844;2023-01-30T13:39:15;100122.97;;;4.86;92.19
72570;BME280;60594;50.204;8.844;2023-01-30T13:41:44;100113.94;;;4.90;92.14
72570;BME280;60594;50.204;8.844;2023-01-30T13:44:24;100120.47;;;4.99;91.38
72570;BME280;60594;50.204;8.844;2023-01-30T13:46:53;100111.91;;;5.09;89.69
72570;BME280;60594;50.204;8.844;2023-01-30T13:49:36;100099.91;;;5.04;90.54
72570;BME280;60594;50.204;8.844;2023-01-30T13:52:16;100088.13;;;5.09;90.80
72570;BME280;60594;50.204;8.844;2023-01-30T14:08:23;100095.63;;;5.31;87.88
72570;BME280;60594;50.204;8.844;2023-01-30T14:10:54;100088.81;;;5.27;88.34
72570;BME280;60594;50.204;8.844;2023-01-30T14:13:23;100092.53;;;5.38;86.78
72570;BME280;60594;50.204;8.844;2023-01-30T14:15:56;100090.06;;;5.49;86.03
72570;BME280;60594;50.204;8.844;2023-01-30T14:18:27;100093.25;;;5.40;86.12
72570;BME280;60594;50.204;8.844;2023-01-30T14:21:22;100100.66;;;5.49;85.75
72570;BME280;60594;50.204;8.844;2023-01-30T14:24:00;100114.50;;;5.53;85.66
72570;BME280;60594;50.204;8.844;2023-01-30T14:39:53;100135.72;;;5.81;85.11
72570;BME280;60594;50.204;8.844;2023-01-30T14:47:23;100163.44;;;5.74;85.41
72570;BME280;60594;50.204;8.844;2023-01-30T14:49:50;100179.97;;;5.77;83.86
72570;BME280;60594;50.204;8.844;2023-01-30T14:52:39;100154.47;;;5.76;79.58
72570;BME280;60594;50.204;8.844;2023-01-30T14:55:19;100164.19;;;5.76;78.36
72570;BME280;60594;50.204;8.844;2023-01-30T14:57:53;100157.88;;;5.78;77.58
72570;BME280;60594;50.204;8.844;2023-01-30T15:00:38;100174.00;;;5.74;77.90